sensor_id;sensor_type;location;lat;lon;timestamp;temperature;humidity
18365;DHT22;9309;52.126;11.616;2023-05-14T00:00:00;12.40;68.40
18365;DHT22;9309;52.126;11.616;2023-05-14T00:02:28;12.40;68.90
18365;DHT22;9309;52.126;11.616;2023-05-14T00:04:55;12.60;68.60
18365;DHT22;9309;52.126;11.616;2023-05-14T00:07:21;12.60;68.20
18365;DHT22;9309;52.126;11.616;2023-05-14T00:09:48;12.40;69.00
18365;DHT22;9309;52.126;11.616;2023-05-14T00:12:14;12.30;69.40
18365;DHT22;9309;52.126;11.616;2023-05-14T00:14:41;12.50;68.80
18365;DHT22;9309;52.126;11.616;2023-05-14T00:17:08;12.50;68.20
18365;DHT22;9309;52.126;11.616;2023-05-14T00:19:36;12.40;68.30
18365;DHT22;9309;52.126;11.616;2023-05-14T00:22:06;12.50;68.30
18365;DHT22;9309;52.126;11.616;2023-05-14T00:24:33;12.50;68.20
18365;DHT22;9309;52.126;11.616;2023-05-14T00:26:59;12.40;68.80
18365;DHT22;9309;52.126;11.616;2023-05-14T00:29:26;12.50;68.50
18365;DHT22;9309;52.126;11.616;2023-05-14T00:31:53;12.30;69.00
18365;DHT22;9309;52.126;11.616;2023-05-14T00:34:20;12.30;68.80
18365;DHT22;9309;52.126;11.616;2023-05-14T00:36:50;12.30;68.40
18365;DHT22;9309;52.126;11.616;2023-05-14T00:39:16;12.50;68.40
18365;DHT22;9309;52.126;11.616;2023-05-14T00:41:43;12.50;67.90
18365;DHT22;9309;52.126;11.616;2023-05-14T00:44:09;12.60;67.80
18365;DHT22;9309;52.126;11.616;2023-05-14T00:46:36;12.30;68.80
18365;DHT22;9309;52.126;11.616;2023-05-14T00:49:03;12.20;68.80
18365;DHT22;9309;52.126;11.616;2023-05-14T00:51:30;12.20;68.90
18365;DHT22;9309;52.126;11.616;2023-05-14T00:53:58;12.20;69.20
18365;DHT22;9309;52.126;11.616;2023-05-14T00:56:25;12.10;69.50
18365;DHT22;9309;52.126;11.616;2023-05-14T00:58:53;12.10;69.50
18365;DHT22;9309;52.126;11.616;2023-05-14T01:01:20;11.80;70.50
18365;DHT22;9309;52.126;11.616;2023-05-14T01:03:46;11.70;71.30
18365;DHT22;9309;52.126;11.616;2023-05-14T01:06:17;11.70;71.40
18365;DHT22;9309;52.126;11.616;2023-05-14T01:08:55;11.80;70.80
18365;DHT22;9309;52.126;11.616;2023-05-14T01:11:28;11.80;71.00
18365;DHT22;9309;52.126;11.616;2023-05-14T01:14:03;12.00;69.80
18365;DHT22;9309;52.126;11.616;2023-05-14T01:16:33;11.90;70.80
18365;DHT22;9309;52.126;11.616;2023-05-14T01:19:04;12.00;70.30
18365;DHT22;9309;52.126;11.616;2023-05-14T01:21:35;12.30;69.20
18365;DHT22;9309;52.126;11.616;2023-05-14T01:24:03;12.50;68.40
18365;DHT22;9309;52.126;11.616;2023-05-14T01:26:30;12.50;67.90
18365;DHT22;9309;52.126;11.616;2023-05-14T01:29:00;12.40;68.20
18365;DHT22;9309;52.126;11.616;2023-05-14T01:31:30;12.30;68.60
18365;DHT22;9309;52.126;11.616;2023-05-14T01:33:59;12.20;69.20
18365;DHT22;9309;52.126;11.616;2023-05-14T01:36:28;12.20;69.20
18365;DHT22;9309;52.126;11.616;2023-05-14T01:38:57;12.20;69.20
18365;DHT22;9309;52.126;11.616;2023-05-14T01:41:25;12.00;70.30
18365;DHT22;9309;52.126;11.616;2023-05-14T01:43:52;12.00;70.30
18365;DHT22;9309;52.126;11.616;2023-05-14T01:46:19;11.80;70.90
18365;DHT22;9309;52.126;11.616;2023-05-14T01:48:48;11.80;71.00
18365;DHT22;9309;52.126;11.616;2023-05-14T01:51:15;11.80;71.40
18365;DHT22;9309;52.126;11.616;2023-05-14T01:53:42;11.90;71.00
18365;DHT22;9309;52.126;11.616;2023-05-14T01:56:10;11.90;71.30
18365;DHT22;9309;52.126;11.616;2023-05-14T01:58:37;12.00;71.20
18365;DHT22;9309;52.126;11.616;2023-05-14T02:01:03;12.10;70.50
18365;DHT22;9309;52.126;11.616;2023-05-14T02:03:30;12.10;70.90
18365;DHT22;9309;52.126;11.616;2023-05-14T02:05:57;12.30;70.30
18365;DHT22;9309;52.126;11.616;2023-05-14T02:08:25;12.40;69.70
18365;DHT22;9309;52.126;11.616;2023-05-14T02:10:52;12.50;69.40
18365;DHT22;9309;52.126;11.616;2023-05-14T02:13:20;12.40;69.70
18365;DHT22;9309;52.126;11.616;2023-05-14T02:15:48;12.40;70.00
18365;DHT22;9309;52.126;11.616;2023-05-14T02:18:15;12.30;70.40
18365;DHT22;9309;52.126;11.616;2023-05-14T02:20:42;12.40;70.40
18365;DHT22;9309;52.126;11.616;2023-05-14T02:23:09;12.50;69.50
18365;DHT22;9309;52.126;11.616;2023-05-14T02:25:35;12.50;69.40
18365;DHT22;9309;52.126;11.616;2023-05-14T02:28:02;12.60;68.90
18365;DHT22;9309;52.126;11.616;2023-05-14T02:30:30;12.40;69.80
18365;DHT22;9309;52.126;11.616;2023-05-14T02:32:57;12.30;70.50
18365;DHT22;9309;52.126;11.616;2023-05-14T02:35:24;12.30;70.10
18365;DHT22;9309;52.126;11.616;2023-05-14T02:37:51;12.20;70.30
18365;DHT22;9309;52.126;11.616;2023-05-14T02:40:18;12.30;70.30
18365;DHT22;9309;52.126;11.616;2023-05-14T02:42:45;12.20;70.50
18365;DHT22;9309;52.126;11.616;2023-05-14T02:45:12;12.10;70.70
18365;DHT22;9309;52.126;11.616;2023-05-14T02:47:40;12.20;70.60
18365;DHT22;9309;52.126;11.616;2023-05-14T02:50:08;12.30;70.10
18365;DHT22;9309;52.126;11.616;2023-05-14T02:52:35;12.40;69.30
18365;DHT22;9309;52.126;11.616;2023-05-14T02:55:02;12.40;69.70
18365;DHT22;9309;52.126;11.616;2023-05-14T02:57:29;12.20;70.20
18365;DHT22;9309;52.126;11.616;2023-05-14T02:59:56;12.00;71.30
18365;DHT22;9309;52.126;11.616;2023-05-14T03:02:23;12.10;71.00
18365;DHT22;9309;52.126;11.616;2023-05-14T03:04:51;12.20;70.40
18365;DHT22;9309;52.126;11.616;2023-05-14T03:07:18;12.20;70.60
18365;DHT22;9309;52.126;11.616;2023-05-14T03:09:44;12.20;70.50
18365;DHT22;9309;52.126;11.616;2023-05-14T03:12:11;12.20;70.80
18365;DHT22;9309;52.126;11.616;2023-05-14T03:14:38;12.20;70.80
18365;DHT22;9309;52.126;11.616;2023-05-14T03:17:05;12.10;71.20
18365;DHT22;9309;52.126;11.616;2023-05-14T03:19:32;12.10;71.20
18365;DHT22;9309;52.126;11.616;2023-05-14T03:22:00;12.20;70.90
18365;DHT22;9309;52.126;11.616;2023-05-14T03:24:27;12.30;70.40
18365;DHT22;9309;52.126;11.616;2023-05-14T03:26:54;12.30;70.10
18365;DHT22;9309;52.126;11.616;2023-05-14T03:29:20;12.20;70.90
18365;DHT22;9309;52.126;11.616;2023-05-14T03:31:47;12.30;70.70
18365;DHT22;9309;52.126;11.616;2023-05-14T03:34:15;12.10;70.60
18365;DHT22;9309;52.126;11.616;2023-05-14T03:36:41;12.00;71.50
18365;DHT22;9309;52.126;11.616;2023-05-14T03:39:09;12.20;71.00
18365;DHT22;9309;52.126;11.616;2023-05-14T03:41:39;12.30;70.10
18365;DHT22;9309;52.126;11.616;2023-05-14T03:44:06;12.30;69.90
18365;DHT22;9309;52.126;11.616;2023-05-14T03:46:33;12.30;70.20
18365;DHT22;9309;52.126;11.616;2023-05-14T03:49:00;12.30;69.80
18365;DHT22;9309;52.126;11.616;2023-05-14T03:51:27;12.20;70.10
18365;DHT22;9309;52.126;11.616;2023-05-14T03:53:55;12.20;70.40
18365;DHT22;9309;52.126;11.616;2023-05-14T03:56:24;12.30;70.20
18365;DHT22;9309;52.126;11.616;2023-05-14T03:58:51;12.40;69.50
18365;DHT22;9309;52.126;11.616;2023-05-14T04:01:18;12.50;69.30
18365;DHT22;9309;52.126;11.616;2023-05-14T04:03:45;12.50;69.20
18365;DHT22;9309;52.126;11.616;2023-05-14T04:06:12;12.30;69.60
18365;DHT22;9309;52.126;11.616;2023-05-14T04:08:38;12.30;69.60
18365;DHT22;9309;52.126;11.616;2023-05-14T04:11:05;12.20;69.70
18365;DHT22;9309;52.126;11.616;2023-05-14T04:13:34;12.30;69.70
18365;DHT22;9309;52.126;11.616;2023-05-14T04:16:01;12.40;69.60
18365;DHT22;9309;52.126;11.616;2023-05-14T04:18:28;12.50;69.30
18365;DHT22;9309;52.126;11.616;2023-05-14T04:20:59;12.50;69.20
18365;DHT22;9309;52.126;11.616;2023-05-14T04:23:25;12.60;69.20
18365;DHT22;9309;52.126;11.616;2023-05-14T04:25:52;12.70;68.60
18365;DHT22;9309;52.126;11.616;2023-05-14T04:28:19;12.60;68.00
18365;DHT22;9309;52.126;11.616;2023-05-14T04:30:47;12.50;68.40
18365;DHT22;9309;52.126;11.616;2023-05-14T04:33:13;12.30;69.40
18365;DHT22;9309;52.126;11.616;2023-05-14T04:35:40;12.10;69.90
18365;DHT22;9309;52.126;11.616;2023-05-14T04:38:07;12.30;68.80
18365;DHT22;9309;52.126;11.616;2023-05-14T04:40:34;12.00;69.80
18365;DHT22;9309;52.126;11.616;2023-05-14T04:43:01;12.10;69.90
18365;DHT22;9309;52.126;11.616;2023-05-14T04:45:27;12.10;68.90
18365;DHT22;9309;52.126;11.616;2023-05-14T04:47:55;12.40;68.30
18365;DHT22;9309;52.126;11.616;2023-05-14T04:50:22;12.30;68.50
18365;DHT22;9309;52.126;11.616;2023-05-14T04:52:48;12.30;68.90
18365;DHT22;9309;52.126;11.616;2023-05-14T04:55:15;12.40;68.60
18365;DHT22;9309;52.126;11.616;2023-05-14T04:57:42;12.40;68.50
18365;DHT22;9309;52.126;11.616;2023-05-14T05:00:10;12.40;68.20
18365;DHT22;9309;52.126;11.616;2023-05-14T05:02:37;12.50;68.00
18365;DHT22;9309;52.126;11.616;2023-05-14T05:05:06;12.40;68.00
18365;DHT22;9309;52.126;11.616;2023-05-14T05:07:33;12.50;67.70
18365;DHT22;9309;52.126;11.616;2023-05-14T05:09:59;12.50;68.10
18365;DHT22;9309;52.126;11.616;2023-05-14T05:12:26;12.60;68.20
18365;DHT22;9309;52.126;11.616;2023-05-14T05:14:54;12.80;67.70
18365;DHT22;9309;52.126;11.616;2023-05-14T05:17:21;12.90;67.30
18365;DHT22;9309;52.126;11.616;2023-05-14T05:19:48;13.00;66.80
18365;DHT22;9309;52.126;11.616;2023-05-14T05:22:16;13.20;65.90
18365;DHT22;9309;52.126;11.616;2023-05-14T05:24:42;13.10;65.80
18365;DHT22;9309;52.126;11.616;2023-05-14T05:27:09;13.00;66.50
18365;DHT22;9309;52.126;11.616;2023-05-14T05:29:36;13.20;66.30
18365;DHT22;9309;52.126;11.616;2023-05-14T05:32:03;13.30;65.60
18365;DHT22;9309;52.126;11.616;2023-05-14T05:34:30;13.50;64.50
18365;DHT22;9309;52.126;11.616;2023-05-14T05:36:56;13.40;65.70
18365;DHT22;9309;52.126;11.616;2023-05-14T05:39:31;13.40;65.80
18365;DHT22;9309;52.126;11.616;2023-05-14T05:41:59;13.50;65.60
18365;DHT22;9309;52.126;11.616;2023-05-14T05:44:26;13.30;65.50
18365;DHT22;9309;52.126;11.616;2023-05-14T05:46:53;13.40;65.60
18365;DHT22;9309;52.126;11.616;2023-05-14T05:49:21;13.40;65.50
18365;DHT22;9309;52.126;11.616;2023-05-14T05:51:48;13.50;64.90
18365;DHT22;9309;52.126;11.616;2023-05-14T05:54:14;13.40;65.20
18365;DHT22;9309;52.126;11.616;2023-05-14T05:56:42;13.10;66.30
18365;DHT22;9309;52.126;11.616;2023-05-14T05:59:09;13.20;66.40
18365;DHT22;9309;52.126;11.616;2023-05-14T06:01:36;13.60;65.30
18365;DHT22;9309;52.126;11.616;2023-05-14T06:04:05;14.10;63.80
18365;DHT22;9309;52.126;11.616;2023-05-14T06:06:31;14.40;61.90
18365;DHT22;9309;52.126;11.616;2023-05-14T06:08:58;14.30;62.40
18365;DHT22;9309;52.126;11.616;2023-05-14T06:11:26;14.40;61.50
18365;DHT22;9309;52.126;11.616;2023-05-14T06:13:54;14.40;61.90
18365;DHT22;9309;52.126;11.616;2023-05-14T06:16:21;14.30;62.50
18365;DHT22;9309;52.126;11.616;2023-05-14T06:18:47;14.10;63.00
18365;DHT22;9309;52.126;11.616;2023-05-14T06:21:14;14.20;63.70
18365;DHT22;9309;52.126;11.616;2023-05-14T06:23:41;14.30;64.10
18365;DHT22;9309;52.126;11.616;2023-05-14T06:26:07;14.40;64.10
18365;DHT22;9309;52.126;11.616;2023-05-14T06:28:34;14.60;62.00
18365;DHT22;9309;52.126;11.616;2023-05-14T06:31:02;14.80;61.40
18365;DHT22;9309;52.126;11.616;2023-05-14T06:33:28;14.70;62.10
18365;DHT22;9309;52.126;11.616;2023-05-14T06:35:55;14.70;62.20
18365;DHT22;9309;52.126;11.616;2023-05-14T06:38:22;14.60;62.10
18365;DHT22;9309;52.126;11.616;2023-05-14T06:40:49;14.70;62.60
18365;DHT22;9309;52.126;11.616;2023-05-14T06:43:16;14.90;62.10
18365;DHT22;9309;52.126;11.616;2023-05-14T06:45:42;15.00;60.80
18365;DHT22;9309;52.126;11.616;2023-05-14T06:48:10;14.90;61.30
18365;DHT22;9309;52.126;11.616;2023-05-14T06:50:37;15.10;61.00
18365;DHT22;9309;52.126;11.616;2023-05-14T06:53:04;15.10;61.10
18365;DHT22;9309;52.126;11.616;2023-05-14T06:55:30;15.10;60.90
18365;DHT22;9309;52.126;11.616;2023-05-14T06:57:57;14.70;62.80
18365;DHT22;9309;52.126;11.616;2023-05-14T07:00:24;14.60;62.80
18365;DHT22;9309;52.126;11.616;2023-05-14T07:02:51;14.40;63.40
18365;DHT22;9309;52.126;11.616;2023-05-14T07:05:19;14.70;62.90
18365;DHT22;9309;52.126;11.616;2023-05-14T07:07:45;14.70;62.80
18365;DHT22;9309;52.126;11.616;2023-05-14T07:10:12;15.10;61.90
18365;DHT22;9309;52.126;11.616;2023-05-14T07:12:38;15.00;61.50
18365;DHT22;9309;52.126;11.616;2023-05-14T07:15:06;15.20;61.90
18365;DHT22;9309;52.126;11.616;2023-05-14T07:17:33;15.30;60.80
18365;DHT22;9309;52.126;11.616;2023-05-14T07:20:00;15.40;61.60
18365;DHT22;9309;52.126;11.616;2023-05-14T07:22:28;15.70;60.00
18365;DHT22;9309;52.126;11.616;2023-05-14T07:24:55;16.00;59.10
18365;DHT22;9309;52.126;11.616;2023-05-14T07:27:21;15.90;59.30
18365;DHT22;9309;52.126;11.616;2023-05-14T07:29:48;15.80;59.90
18365;DHT22;9309;52.126;11.616;2023-05-14T07:32:15;16.10;59.10
18365;DHT22;9309;52.126;11.616;2023-05-14T07:34:42;16.30;58.00
18365;DHT22;9309;52.126;11.616;2023-05-14T07:37:08;16.50;58.40
18365;DHT22;9309;52.126;11.616;2023-05-14T07:39:36;17.00;57.30
18365;DHT22;9309;52.126;11.616;2023-05-14T07:42:03;17.40;55.50
18365;DHT22;9309;52.126;11.616;2023-05-14T07:44:30;17.60;54.50
18365;DHT22;9309;52.126;11.616;2023-05-14T07:46:57;17.80;54.00
18365;DHT22;9309;52.126;11.616;2023-05-14T07:49:23;18.10;53.30
18365;DHT22;9309;52.126;11.616;2023-05-14T07:51:50;17.50;54.30
18365;DHT22;9309;52.126;11.616;2023-05-14T07:54:17;17.60;54.40
18365;DHT22;9309;52.126;11.616;2023-05-14T07:56:45;17.90;53.60
18365;DHT22;9309;52.126;11.616;2023-05-14T07:59:11;17.80;53.40
18365;DHT22;9309;52.126;11.616;2023-05-14T08:01:38;17.60;53.80
18365;DHT22;9309;52.126;11.616;2023-05-14T08:04:05;17.30;55.30
18365;DHT22;9309;52.126;11.616;2023-05-14T08:06:31;17.20;56.00
18365;DHT22;9309;52.126;11.616;2023-05-14T08:08:58;17.20;55.80
18365;DHT22;9309;52.126;11.616;2023-05-14T08:11:25;17.10;56.60
18365;DHT22;9309;52.126;11.616;2023-05-14T08:13:53;17.20;56.10
18365;DHT22;9309;52.126;11.616;2023-05-14T08:16:20;17.40;55.60
18365;DHT22;9309;52.126;11.616;2023-05-14T08:18:46;17.30;55.30
18365;DHT22;9309;52.126;11.616;2023-05-14T08:21:13;17.40;56.00
18365;DHT22;9309;52.126;11.616;2023-05-14T08:23:40;17.40;56.30
18365;DHT22;9309;52.126;11.616;2023-05-14T08:26:06;17.50;56.60
18365;DHT22;9309;52.126;11.616;2023-05-14T08:28:33;17.50;56.40
18365;DHT22;9309;52.126;11.616;2023-05-14T08:31:01;17.30;55.50
18365;DHT22;9309;52.126;11.616;2023-05-14T08:33:28;17.30;55.50
18365;DHT22;9309;52.126;11.616;2023-05-14T08:35:54;17.40;55.40
18365;DHT22;9309;52.126;11.616;2023-05-14T08:38:22;17.70;55.40
18365;DHT22;9309;52.126;11.616;2023-05-14T08:40:55;17.90;55.10
18365;DHT22;9309;52.126;11.616;2023-05-14T08:43:25;17.90;53.50
18365;DHT22;9309;52.126;11.616;2023-05-14T08:45:56;17.80;54.00
18365;DHT22;9309;52.126;11.616;2023-05-14T08:48:26;17.70;55.20
18365;DHT22;9309;52.126;11.616;2023-05-14T08:50:54;17.90;54.30
18365;DHT22;9309;52.126;11.616;2023-05-14T08:53:21;18.10;53.20
18365;DHT22;9309;52.126;11.616;2023-05-14T08:55:49;18.10;52.20
18365;DHT22;9309;52.126;11.616;2023-05-14T08:58:16;18.20;47.60
18365;DHT22;9309;52.126;11.616;2023-05-14T09:00:43;18.50;47.30
18365;DHT22;9309;52.126;11.616;2023-05-14T09:03:11;18.90;47.20
18365;DHT22;9309;52.126;11.616;2023-05-14T09:05:40;19.10;47.20
18365;DHT22;9309;52.126;11.616;2023-05-14T09:08:07;19.40;43.80
18365;DHT22;9309;52.126;11.616;2023-05-14T09:10:34;19.40;40.50
18365;DHT22;9309;52.126;11.616;2023-05-14T09:13:01;19.30;43.80
18365;DHT22;9309;52.126;11.616;2023-05-14T09:15:28;19.10;44.00
18365;DHT22;9309;52.126;11.616;2023-05-14T09:17:55;19.00;44.40
18365;DHT22;9309;52.126;11.616;2023-05-14T09:20:23;19.40;44.00
18365;DHT22;9309;52.126;11.616;2023-05-14T09:22:53;19.50;40.50
18365;DHT22;9309;52.126;11.616;2023-05-14T09:25:25;19.40;39.60
18365;DHT22;9309;52.126;11.616;2023-05-14T09:27:52;19.40;40.00
18365;DHT22;9309;52.126;11.616;2023-05-14T09:30:20;19.70;39.80
18365;DHT22;9309;52.126;11.616;2023-05-14T09:32:46;19.90;39.30
18365;DHT22;9309;52.126;11.616;2023-05-14T09:35:16;20.20;38.10
18365;DHT22;9309;52.126;11.616;2023-05-14T09:37:45;20.20;37.50
18365;DHT22;9309;52.126;11.616;2023-05-14T09:40:14;20.60;37.40
18365;DHT22;9309;52.126;11.616;2023-05-14T09:42:41;20.80;37.10
18365;DHT22;9309;52.126;11.616;2023-05-14T09:45:08;20.50;36.90
18365;DHT22;9309;52.126;11.616;2023-05-14T09:47:36;20.20;38.10
18365;DHT22;9309;52.126;11.616;2023-05-14T09:50:03;20.00;37.20
18365;DHT22;9309;52.126;11.616;2023-05-14T09:52:30;20.00;37.60
18365;DHT22;9309;52.126;11.616;2023-05-14T09:54:56;19.90;38.10
18365;DHT22;9309;52.126;11.616;2023-05-14T09:57:24;19.50;38.20
18365;DHT22;9309;52.126;11.616;2023-05-14T09:59:52;19.40;39.00
18365;DHT22;9309;52.126;11.616;2023-05-14T10:02:23;19.70;38.40
18365;DHT22;9309;52.126;11.616;2023-05-14T10:04:51;20.10;37.10
18365;DHT22;9309;52.126;11.616;2023-05-14T10:07:21;20.50;36.40
18365;DHT22;9309;52.126;11.616;2023-05-14T10:09:50;20.50;36.10
18365;DHT22;9309;52.126;11.616;2023-05-14T10:12:21;20.40;36.20
18365;DHT22;9309;52.126;11.616;2023-05-14T10:14:52;20.10;37.10
18365;DHT22;9309;52.126;11.616;2023-05-14T10:17:24;20.50;34.60
18365;DHT22;9309;52.126;11.616;2023-05-14T10:19:55;20.90;35.60
18365;DHT22;9309;52.126;11.616;2023-05-14T10:22:23;21.40;34.90
18365;DHT22;9309;52.126;11.616;2023-05-14T10:24:51;21.60;34.00
18365;DHT22;9309;52.126;11.616;2023-05-14T10:27:19;21.30;34.90
18365;DHT22;9309;52.126;11.616;2023-05-14T10:29:52;21.30;33.60
18365;DHT22;9309;52.126;11.616;2023-05-14T10:32:21;20.90;33.30
18365;DHT22;9309;52.126;11.616;2023-05-14T10:34:48;21.20;32.70
18365;DHT22;9309;52.126;11.616;2023-05-14T10:37:17;21.20;32.90
18365;DHT22;9309;52.126;11.616;2023-05-14T10:39:45;21.10;33.40
18365;DHT22;9309;52.126;11.616;2023-05-14T10:42:15;21.20;33.10
18365;DHT22;9309;52.126;11.616;2023-05-14T10:44:48;20.50;34.70
18365;DHT22;9309;52.126;11.616;2023-05-14T10:47:16;20.70;34.90
18365;DHT22;9309;52.126;11.616;2023-05-14T10:49:45;21.00;34.60
18365;DHT22;9309;52.126;11.616;2023-05-14T10:52:15;20.90;33.00
18365;DHT22;9309;52.126;11.616;2023-05-14T10:54:48;21.10;32.30
18365;DHT22;9309;52.126;11.616;2023-05-14T10:57:16;21.20;32.50
18365;DHT22;9309;52.126;11.616;2023-05-14T10:59:43;21.60;32.40
18365;DHT22;9309;52.126;11.616;2023-05-14T11:02:20;23.20;30.50
18365;DHT22;9309;52.126;11.616;2023-05-14T11:04:55;23.90;28.50
18365;DHT22;9309;52.126;11.616;2023-05-14T11:07:24;23.50;28.50
18365;DHT22;9309;52.126;11.616;2023-05-14T11:09:53;23.10;29.60
18365;DHT22;9309;52.126;11.616;2023-05-14T11:12:22;24.30;28.40
18365;DHT22;9309;52.126;11.616;2023-05-14T11:14:49;25.50;26.70
18365;DHT22;9309;52.126;11.616;2023-05-14T11:17:16;26.30;26.30
18365;DHT22;9309;52.126;11.616;2023-05-14T11:19:44;26.60;26.30
18365;DHT22;9309;52.126;11.616;2023-05-14T11:22:11;25.80;26.60
18365;DHT22;9309;52.126;11.616;2023-05-14T11:24:39;24.70;27.60
18365;DHT22;9309;52.126;11.616;2023-05-14T11:27:06;23.40;29.00
18365;DHT22;9309;52.126;11.616;2023-05-14T11:29:34;22.60;30.60
18365;DHT22;9309;52.126;11.616;2023-05-14T11:32:01;22.00;31.20
18365;DHT22;9309;52.126;11.616;2023-05-14T11:34:28;21.50;32.30
18365;DHT22;9309;52.126;11.616;2023-05-14T11:36:56;21.60;32.90
18365;DHT22;9309;52.126;11.616;2023-05-14T11:39:22;21.40;32.30
18365;DHT22;9309;52.126;11.616;2023-05-14T11:41:49;21.20;32.90
18365;DHT22;9309;52.126;11.616;2023-05-14T11:44:16;21.20;33.00
18365;DHT22;9309;52.126;11.616;2023-05-14T11:46:53;21.20;33.30
18365;DHT22;9309;52.126;11.616;2023-05-14T11:49:20;21.60;33.00
18365;DHT22;9309;52.126;11.616;2023-05-14T11:51:47;21.80;32.90
18365;DHT22;9309;52.126;11.616;2023-05-14T11:54:15;22.00;32.40
18365;DHT22;9309;52.126;11.616;2023-05-14T11:56:41;22.40;32.40
18365;DHT22;9309;52.126;11.616;2023-05-14T11:59:09;22.30;32.30
18365;DHT22;9309;52.126;11.616;2023-05-14T12:01:37;22.20;31.80
18365;DHT22;9309;52.126;11.616;2023-05-14T12:04:04;22.20;31.60
18365;DHT22;9309;52.126;11.616;2023-05-14T12:06:31;22.30;31.70
18365;DHT22;9309;52.126;11.616;2023-05-14T12:08:57;22.70;32.20
18365;DHT22;9309;52.126;11.616;2023-05-14T12:11:30;22.80;32.00
18365;DHT22;9309;52.126;11.616;2023-05-14T12:13:57;23.00;31.50
18365;DHT22;9309;52.126;11.616;2023-05-14T12:16:29;23.00;32.00
18365;DHT22;9309;52.126;11.616;2023-05-14T12:18:58;23.20;31.80
18365;DHT22;9309;52.126;11.616;2023-05-14T12:21:26;23.20;31.80
18365;DHT22;9309;52.126;11.616;2023-05-14T12:23:56;23.00;31.50
18365;DHT22;9309;52.126;11.616;2023-05-14T12:26:24;23.00;29.90
18365;DHT22;9309;52.126;11.616;2023-05-14T12:28:58;22.50;30.50
18365;DHT22;9309;52.126;11.616;2023-05-14T12:31:29;22.00;32.00
18365;DHT22;9309;52.126;11.616;2023-05-14T12:33:55;22.20;31.40
18365;DHT22;9309;52.126;11.616;2023-05-14T12:36:22;22.40;31.90
18365;DHT22;9309;52.126;11.616;2023-05-14T12:38:49;22.30;32.30
18365;DHT22;9309;52.126;11.616;2023-05-14T12:41:16;22.10;32.00
18365;DHT22;9309;52.126;11.616;2023-05-14T12:43:43;22.50;31.80
18365;DHT22;9309;52.126;11.616;2023-05-14T12:46:11;22.60;31.70
18365;DHT22;9309;52.126;11.616;2023-05-14T12:48:38;22.60;31.10
18365;DHT22;9309;52.126;11.616;2023-05-14T12:51:05;22.60;31.80
18365;DHT22;9309;52.126;11.616;2023-05-14T12:53:32;22.90;31.70
18365;DHT22;9309;52.126;11.616;2023-05-14T12:55:59;24.20;30.70
18365;DHT22;9309;52.126;11.616;2023-05-14T12:58:25;25.90;28.40
18365;DHT22;9309;52.126;11.616;2023-05-14T13:00:52;24.70;29.50
18365;DHT22;9309;52.126;11.616;2023-05-14T13:03:20;24.20;30.10
18365;DHT22;9309;52.126;11.616;2023-05-14T13:05:47;23.60;30.10
18365;DHT22;9309;52.126;11.616;2023-05-14T13:08:13;22.90;30.80
18365;DHT22;9309;52.126;11.616;2023-05-14T13:10:42;22.00;32.00
18365;DHT22;9309;52.126;11.616;2023-05-14T13:13:09;21.20;33.40
18365;DHT22;9309;52.126;11.616;2023-05-14T13:15:37;20.80;34.00
18365;DHT22;9309;52.126;11.616;2023-05-14T13:18:04;21.00;34.30
18365;DHT22;9309;52.126;11.616;2023-05-14T13:20:32;20.70;34.50
18365;DHT22;9309;52.126;11.616;2023-05-14T13:22:58;20.50;35.30
18365;DHT22;9309;52.126;11.616;2023-05-14T13:25:25;20.50;34.90
18365;DHT22;9309;52.126;11.616;2023-05-14T13:30:19;21.10;34.50
18365;DHT22;9309;52.126;11.616;2023-05-14T13:32:46;21.50;34.20
18365;DHT22;9309;52.126;11.616;2023-05-14T13:35:13;21.50;33.20
18365;DHT22;9309;52.126;11.616;2023-05-14T13:37:42;21.60;33.50
18365;DHT22;9309;52.126;11.616;2023-05-14T13:40:09;21.50;33.20
18365;DHT22;9309;52.126;11.616;2023-05-14T13:42:37;21.50;33.40
18365;DHT22;9309;52.126;11.616;2023-05-14T13:45:05;21.40;34.20
18365;DHT22;9309;52.126;11.616;2023-05-14T13:50:01;21.70;34.00
18365;DHT22;9309;52.126;11.616;2023-05-14T13:52:27;21.30;34.90
18365;DHT22;9309;52.126;11.616;2023-05-14T13:54:55;21.50;34.00
18365;DHT22;9309;52.126;11.616;2023-05-14T13:57:22;22.70;32.80
18365;DHT22;9309;52.126;11.616;2023-05-14T13:59:49;23.00;32.30
18365;DHT22;9309;52.126;11.616;2023-05-14T14:02:16;22.90;32.60
18365;DHT22;9309;52.126;11.616;2023-05-14T14:04:42;23.00;32.50
18365;DHT22;9309;52.126;11.616;2023-05-14T14:07:09;23.30;32.20
18365;DHT22;9309;52.126;11.616;2023-05-14T14:09:35;23.20;32.30
18365;DHT22;9309;52.126;11.616;2023-05-14T14:12:04;23.40;32.00
18365;DHT22;9309;52.126;11.616;2023-05-14T14:14:31;23.70;31.70
18365;DHT22;9309;52.126;11.616;2023-05-14T14:16:58;25.50;28.40
18365;DHT22;9309;52.126;11.616;2023-05-14T14:19:24;26.00;28.10
18365;DHT22;9309;52.126;11.616;2023-05-14T14:21:51;26.40;27.60
18365;DHT22;9309;52.126;11.616;2023-05-14T14:24:18;25.80;28.50
18365;DHT22;9309;52.126;11.616;2023-05-14T14:26:44;24.70;30.10
18365;DHT22;9309;52.126;11.616;2023-05-14T14:29:12;24.10;30.60
18365;DHT22;9309;52.126;11.616;2023-05-14T14:31:39;23.10;31.90
18365;DHT22;9309;52.126;11.616;2023-05-14T14:34:06;22.50;32.80
18365;DHT22;9309;52.126;11.616;2023-05-14T14:36:32;22.20;33.30
18365;DHT22;9309;52.126;11.616;2023-05-14T14:38:59;22.00;33.70
18365;DHT22;9309;52.126;11.616;2023-05-14T14:41:26;22.00;33.90
18365;DHT22;9309;52.126;11.616;2023-05-14T14:43:52;22.00;34.40
18365;DHT22;9309;52.126;11.616;2023-05-14T14:46:20;22.00;34.30
18365;DHT22;9309;52.126;11.616;2023-05-14T14:48:47;22.20;33.50
18365;DHT22;9309;52.126;11.616;2023-05-14T14:51:14;22.40;33.80
18365;DHT22;9309;52.126;11.616;2023-05-14T14:53:40;22.50;33.60
18365;DHT22;9309;52.126;11.616;2023-05-14T14:56:07;22.30;34.10
18365;DHT22;9309;52.126;11.616;2023-05-14T14:58:34;22.00;34.10
18365;DHT22;9309;52.126;11.616;2023-05-14T15:01:01;21.80;34.70
18365;DHT22;9309;52.126;11.616;2023-05-14T15:03:29;21.70;35.40
18365;DHT22;9309;52.126;11.616;2023-05-14T15:05:55;21.50;35.30
18365;DHT22;9309;52.126;11.616;2023-05-14T15:08:24;21.40;35.30
18365;DHT22;9309;52.126;11.616;2023-05-14T15:10:51;21.20;35.50
18365;DHT22;9309;52.126;11.616;2023-05-14T15:13:18;21.10;35.00
18365;DHT22;9309;52.126;11.616;2023-05-14T15:15:45;21.10;35.20
18365;DHT22;9309;52.126;11.616;2023-05-14T15:18:12;21.00;35.40
18365;DHT22;9309;52.126;11.616;2023-05-14T15:20:39;21.00;35.60
18365;DHT22;9309;52.126;11.616;2023-05-14T15:23:06;21.00;35.60
18365;DHT22;9309;52.126;11.616;2023-05-14T15:25:33;20.90;35.30
18365;DHT22;9309;52.126;11.616;2023-05-14T15:27:59;21.30;35.10
18365;DHT22;9309;52.126;11.616;2023-05-14T15:30:26;21.30;35.50
18365;DHT22;9309;52.126;11.616;2023-05-14T15:32:53;21.30;35.80
18365;DHT22;9309;52.126;11.616;2023-05-14T15:35:20;21.30;34.50